Cruzeiro do Oeste, Brazil
Current Conditions -  °F | °C
As of 4:00 PM on Saturday 25 Oct 2014 (Local Time) from SBMG Reporting Station
Scattered Clouds Scattered Clouds  
Wind Chill: 79°   Ceiling: Unl
Heat Index: 81°   Visibility: 6mi
Dew Point: 64°   Wind: 13mph
Humidity: 61%   Direction: 340°NNW
Pressure: 29.91"   Gusts: NA
Location:  23.79°S, 53.07°W
Report Text: SBMG 251800Z 34011KT 9999 SCT026 26/18 Q1013
Loading
Personal Weather Stations






























Interactive Weather Map
Tropical Storm Tracking
New forecast layout! Learn more

10-Day Weather Forecast

Advertisements
Track Severe Weather on mobile